WetterOnline ( http://www.wetteronline.de )

Wetter aktuell Taunus (in 800m)

Aktuelles Wetter: Kleiner Feldberg (802m)

6-stündlich | Neueste Meldungen
Ortszeit Temperatur Wetter
Mi, 17.10. 2:00 14.0° C bedeckt
Di, 16.10. 20:00 14.7° C leicht bewölkt
Di, 16.10. 14:00 18.8° C fast wolkenlos
Di, 16.10. 8:00 15.2° C fast wolkenlos
Di, 16.10. 2:00 15.7° C wolkenlos
Mo, 15.10. 20:00 16.2° C wolkenlos
Mo, 15.10. 14:00 19.3° C fast wolkenlos
Mo, 15.10. 8:00 15.5° C wolkenlos
Ortszeit Temperatur Wetter
Mi, 17.10. 5:30 14.1° C wolkig
Mi, 17.10. 5:20 14.1° C wolkig
Mi, 17.10. 5:10 14.3° C wolkig
Mi, 17.10. 5:00 14.7° C leicht bewölkt
Mi, 17.10. 4:50 14.7° C leicht bewölkt
Mi, 17.10. 4:40 14.6° C leicht bewölkt
Mi, 17.10. 4:30 14.3° C leicht bewölkt
Mi, 17.10. 4:00 14.5° C wolkenlos
Mi, 17.10. 3:30 14.5° C wolkenlos
Mi, 17.10. 3:00 14.4° C wolkig
Mi, 17.10. 2:30 14.3° C bedeckt
Ortszeit Relative Feuchte Sichtweite
Mi, 17.10. 2:00 69% 21 km
Di, 16.10. 20:00 65% 60 km
Di, 16.10. 14:00 47% 55 km
Di, 16.10. 8:00 51% 45 km
Di, 16.10. 2:00 55% 40 km
Mo, 15.10. 20:00 50% 45 km
Mo, 15.10. 14:00 43% 40 km
Mo, 15.10. 8:00 49% 55 km
Ortszeit Relative Feuchte Sichtweite
Mi, 17.10. 5:30 58% 35 km
Mi, 17.10. 5:20 58% -
Mi, 17.10. 5:10 57% -
Mi, 17.10. 5:00 57% 35 km
Mi, 17.10. 4:50 57% -
Mi, 17.10. 4:40 57% -
Mi, 17.10. 4:30 62% 30 km
Mi, 17.10. 4:00 60% 35 km
Mi, 17.10. 3:30 59% 40 km
Mi, 17.10. 3:00 62% 35 km
Mi, 17.10. 2:30 66% 27 km
Ortszeit Niederschlagsmenge Niederschlagsart
Mi, 17.10. 2:00 0.0 l/m2 in 6 Std. -
Di, 16.10. 20:00 0.0 l/m2 in 12 Std. -
Di, 16.10. 14:00 0.0 l/m2 in 6 Std. -
Di, 16.10. 8:00 0.0 l/m2 in 12 Std. -
Di, 16.10. 2:00 0.0 l/m2 in 6 Std. -
Mo, 15.10. 20:00 0.0 l/m2 in 12 Std. -
Mo, 15.10. 14:00 0.0 l/m2 in 6 Std. -
Mo, 15.10. 8:00 0.0 l/m2 in 12 Std. -
Ortszeit Niederschlagsmenge Niederschlagsart
Mi, 17.10. 5:30 0.0 l/m2 in 1 Std. -
Mi, 17.10. 5:20 keine Meldung -
Mi, 17.10. 5:10 keine Meldung -
Mi, 17.10. 5:00 0.0 l/m2 in 1 Std. -
Mi, 17.10. 4:50 keine Meldung -
Mi, 17.10. 4:40 keine Meldung -
Mi, 17.10. 4:30 0.0 l/m2 in 1 Std. -
Mi, 17.10. 4:00 0.0 l/m2 in 1 Std. -
Mi, 17.10. 3:30 0.0 l/m2 in 1 Std. -
Mi, 17.10. 3:00 0.0 l/m2 in 1 Std. -
Mi, 17.10. 2:30 0.0 l/m2 in 1 Std. -
Ortszeit Stärke Spitze Richtung
km/h Bft. km/h Grad Sektor
Mi, 17.10. 2:00 11 2 36 80° O
Di, 16.10. 20:00 22 4 32 40° NO
Di, 16.10. 14:00 7 2 32 30° NO
Di, 16.10. 8:00 20 4 30 30° NO
Di, 16.10. 2:00 9 2 17 60° NO
Mo, 15.10. 20:00 11 2 18 50° NO
Mo, 15.10. 14:00 9 2 15 20° N
Mo, 15.10. 8:00 7 2 19 50° NO
Ortszeit Stärke Spitze Richtung
km/h Bft. km/h Grad Sektor
Mi, 17.10. 5:30 7 2 9 90° O
Mi, 17.10. 5:20 7 2 - 90° O
Mi, 17.10. 5:10 7 2 - 100° O
Mi, 17.10. 5:00 9 2 9 110° O
Mi, 17.10. 4:50 9 2 - 110° O
Mi, 17.10. 4:40 9 2 - 110° O
Mi, 17.10. 4:30 9 2 9 120° SO
Mi, 17.10. 4:00 9 2 13 120° SO
Mi, 17.10. 3:30 11 2 13 120° SO
Mi, 17.10. 3:00 11 2 18 120° SO
Mi, 17.10. 2:30 11 2 18 90° O
Ortszeit Untergrenze Bedeckung Gattung
total tief tief mittel hoch
Mi, 17.10. 2:00 3900 m 8/8 8/8 - - -
Di, 16.10. 20:00 4800 m 1/8 5/8 - - -
Di, 16.10. 14:00 7500 m 2/8 0/8 - - -
Di, 16.10. 8:00 3600 m 1/8 1/8 - - -
Di, 16.10. 2:00 - 0/8 0/8 - - -
Mo, 15.10. 20:00 - 0/8 0/8 - - -
Mo, 15.10. 14:00 5100 m 1/8 1/8 - - -
Mo, 15.10. 8:00 - 0/8 0/8 - - -
Ortszeit Bedeckungsgrad in Achtel und Wolkenuntergrenze
Mi, 17.10. 5:30 7(8100m) 7(9000m)
Mi, 17.10. 5:20 7(8100m) 7(9000m)
Mi, 17.10. 5:10 6(8100m) 8(9000m)
Mi, 17.10. 5:00 2(8400m) 4(9000m) 5(9000m)
Mi, 17.10. 4:50 2(8400m) 4(9000m) 5(9000m)
Mi, 17.10. 4:40 3(8400m)
Mi, 17.10. 4:30 3(8400m) 4(9000m)
Mi, 17.10. 4:00 keine Wolken
Mi, 17.10. 3:30 keine Wolken
Mi, 17.10. 3:00 5(3900m)
Mi, 17.10. 2:30 8(3900m)
Ortszeit Stationsdruck (hPa) Tendenz (hPa in 3 Std.)
Mi, 17.10. 2:00 925 - 0,4
Di, 16.10. 20:00 925 + 0,1
Di, 16.10. 14:00 925 + 0,2
Di, 16.10. 8:00 924 + 0,7
Di, 16.10. 2:00 923 + 0,3
Mo, 15.10. 20:00 922 + 1,0
Mo, 15.10. 14:00 921 0,0
Mo, 15.10. 8:00 920 + 0,8
Ortszeit Stationsdruck (hPa) Tendenz (hPa in 3 Std.)
Mi, 17.10. 5:30 925 - 0,5
Mi, 17.10. 5:20 925 keine Meldung
Mi, 17.10. 5:10 925 keine Meldung
Mi, 17.10. 5:00 925 - 0,7
Mi, 17.10. 4:50 925 keine Meldung
Mi, 17.10. 4:40 925 keine Meldung
Mi, 17.10. 4:30 925 - 0,6
Mi, 17.10. 4:00 925 - 0,7
Mi, 17.10. 3:30 925 - 0,8
Mi, 17.10. 3:00 925 - 0,6
Mi, 17.10. 2:30 925 - 0,6
Ortszeit Schneehöhe (cm)
Mi, 17.10. 2:00 0
Di, 16.10. 20:00 0
Di, 16.10. 14:00 0
Di, 16.10. 8:00 0
Di, 16.10. 2:00 0
Mo, 15.10. 20:00 0
Mo, 15.10. 14:00 0
Mo, 15.10. 8:00 0
Ortszeit Schneehöhe (cm)
Mi, 17.10. 5:30 0
Mi, 17.10. 5:20 0
Mi, 17.10. 5:10 0
Mi, 17.10. 5:00 0
Mi, 17.10. 4:50 0
Mi, 17.10. 4:40 0
Mi, 17.10. 4:30 0
Mi, 17.10. 4:00 0
Mi, 17.10. 3:30 0
Mi, 17.10. 3:00 0
Mi, 17.10. 2:30 0
Link zu dieser Seite / Seite empfehlen

Das Wetter in ...